sensor_id;sensor_type;location;lat;lon;timestamp;P1;durP1;ratioP1;P2;durP2;ratioP2
76447;SDS011;65284;51.040;13.722;2023-08-06T00:00:57;9.70;;;6.45;;
76447;SDS011;65284;51.040;13.722;2023-08-06T00:03:23;12.05;;;6.55;;
76447;SDS011;65284;51.040;13.722;2023-08-06T00:05:50;10.98;;;6.80;;
76447;SDS011;65284;51.040;13.722;2023-08-06T00:08:16;8.93;;;6.03;;
76447;SDS011;65284;51.040;13.722;2023-08-06T00:10:43;10.15;;;6.50;;
76447;SDS011;65284;51.040;13.722;2023-08-06T00:13:09;9.52;;;6.47;;
76447;SDS011;65284;51.040;13.722;2023-08-06T00:15:36;10.25;;;6.30;;
76447;SDS011;65284;51.040;13.722;2023-08-06T00:18:02;9.82;;;6.53;;
76447;SDS011;65284;51.040;13.722;2023-08-06T00:20:30;9.15;;;6.40;;
76447;SDS011;65284;51.040;13.722;2023-08-06T00:22:57;11.88;;;6.95;;
76447;SDS011;65284;51.040;13.722;2023-08-06T00:25:23;9.80;;;6.43;;
76447;SDS011;65284;51.040;13.722;2023-08-06T00:27:50;9.65;;;6.60;;
76447;SDS011;65284;51.040;13.722;2023-08-06T00:30:16;10.77;;;6.47;;
76447;SDS011;65284;51.040;13.722;2023-08-06T00:32:43;9.60;;;6.82;;
76447;SDS011;65284;51.040;13.722;2023-08-06T00:35:09;8.13;;;6.38;;
76447;SDS011;65284;51.040;13.722;2023-08-06T00:37:36;13.02;;;7.05;;
76447;SDS011;65284;51.040;13.722;2023-08-06T00:40:02;15.45;;;7.85;;
76447;SDS011;65284;51.040;13.722;2023-08-06T00:42:29;12.05;;;7.85;;
76447;SDS011;65284;51.040;13.722;2023-08-06T00:44:56;11.50;;;7.00;;
76447;SDS011;65284;51.040;13.722;2023-08-06T00:47:22;10.85;;;7.30;;
76447;SDS011;65284;51.040;13.722;2023-08-06T00:49:49;11.02;;;7.00;;
76447;SDS011;65284;51.040;13.722;2023-08-06T00:52:16;10.55;;;7.00;;
76447;SDS011;65284;51.040;13.722;2023-08-06T00:54:42;13.10;;;7.68;;
76447;SDS011;65284;51.040;13.722;2023-08-06T00:57:09;13.82;;;7.80;;
76447;SDS011;65284;51.040;13.722;2023-08-06T00:59:37;14.93;;;8.05;;
76447;SDS011;65284;51.040;13.722;2023-08-06T01:02:04;13.77;;;8.07;;
76447;SDS011;65284;51.040;13.722;2023-08-06T01:04:30;13.45;;;8.30;;
76447;SDS011;65284;51.040;13.722;2023-08-06T01:13:30;11.23;;;6.70;;
76447;SDS011;65284;51.040;13.722;2023-08-06T01:15:52;12.85;;;7.88;;
76447;SDS011;65284;51.040;13.722;2023-08-06T01:18:23;13.30;;;7.80;;
76447;SDS011;65284;51.040;13.722;2023-08-06T01:20:49;12.80;;;7.80;;
76447;SDS011;65284;51.040;13.722;2023-08-06T01:23:16;14.10;;;8.55;;
76447;SDS011;65284;51.040;13.722;2023-08-06T01:25:53;11.68;;;7.35;;
76447;SDS011;65284;51.040;13.722;2023-08-06T01:28:51;12.60;;;7.43;;
76447;SDS011;65284;51.040;13.722;2023-08-06T01:31:39;12.13;;;7.05;;
76447;SDS011;65284;51.040;13.722;2023-08-06T01:34:22;12.70;;;7.53;;
76447;SDS011;65284;51.040;13.722;2023-08-06T01:36:50;11.05;;;7.15;;
76447;SDS011;65284;51.040;13.722;2023-08-06T01:39:18;11.73;;;6.97;;
76447;SDS011;65284;51.040;13.722;2023-08-06T01:41:47;11.82;;;7.40;;
76447;SDS011;65284;51.040;13.722;2023-08-06T01:44:15;11.40;;;7.70;;
76447;SDS011;65284;51.040;13.722;2023-08-06T01:46:41;12.35;;;8.05;;
76447;SDS011;65284;51.040;13.722;2023-08-06T01:49:08;13.38;;;7.65;;
76447;SDS011;65284;51.040;13.722;2023-08-06T01:51:34;12.35;;;8.43;;
76447;SDS011;65284;51.040;13.722;2023-08-06T01:54:01;14.80;;;8.48;;
76447;SDS011;65284;51.040;13.722;2023-08-06T01:56:27;14.43;;;9.27;;
76447;SDS011;65284;51.040;13.722;2023-08-06T01:58:54;12.90;;;8.70;;
76447;SDS011;65284;51.040;13.722;2023-08-06T02:01:21;11.98;;;8.23;;
76447;SDS011;65284;51.040;13.722;2023-08-06T02:03:47;11.00;;;7.47;;
76447;SDS011;65284;51.040;13.722;2023-08-06T02:06:14;11.82;;;7.70;;
76447;SDS011;65284;51.040;13.722;2023-08-06T02:08:40;11.57;;;7.70;;
76447;SDS011;65284;51.040;13.722;2023-08-06T02:11:07;12.25;;;7.95;;
76447;SDS011;65284;51.040;13.722;2023-08-06T02:13:33;13.32;;;8.38;;
76447;SDS011;65284;51.040;13.722;2023-08-06T02:15:59;12.02;;;8.18;;
76447;SDS011;65284;51.040;13.722;2023-08-06T02:18:26;13.32;;;8.05;;
76447;SDS011;65284;51.040;13.722;2023-08-06T02:20:59;13.00;;;8.60;;
76447;SDS011;65284;51.040;13.722;2023-08-06T02:23:26;15.07;;;9.02;;
76447;SDS011;65284;51.040;13.722;2023-08-06T02:26:02;18.98;;;10.13;;
76447;SDS011;65284;51.040;13.722;2023-08-06T02:28:30;14.32;;;8.52;;
76447;SDS011;65284;51.040;13.722;2023-08-06T02:30:57;10.55;;;7.32;;
76447;SDS011;65284;51.040;13.722;2023-08-06T02:33:24;11.25;;;7.95;;
76447;SDS011;65284;51.040;13.722;2023-08-06T02:35:50;17.38;;;9.68;;
76447;SDS011;65284;51.040;13.722;2023-08-06T02:38:17;12.73;;;8.82;;
76447;SDS011;65284;51.040;13.722;2023-08-06T02:40:44;15.50;;;9.35;;
76447;SDS011;65284;51.040;13.722;2023-08-06T02:43:12;12.10;;;8.15;;
76447;SDS011;65284;51.040;13.722;2023-08-06T02:45:39;14.65;;;8.40;;
76447;SDS011;65284;51.040;13.722;2023-08-06T02:48:05;14.18;;;9.38;;
76447;SDS011;65284;51.040;13.722;2023-08-06T02:50:37;21.98;;;9.80;;
76447;SDS011;65284;51.040;13.722;2023-08-06T02:53:07;13.38;;;9.23;;
76447;SDS011;65284;51.040;13.722;2023-08-06T02:55:34;15.32;;;8.40;;
76447;SDS011;65284;51.040;13.722;2023-08-06T02:58:01;15.10;;;8.93;;
76447;SDS011;65284;51.040;13.722;2023-08-06T03:00:28;18.67;;;11.18;;
76447;SDS011;65284;51.040;13.722;2023-08-06T03:02:54;22.50;;;12.30;;
76447;SDS011;65284;51.040;13.722;2023-08-06T03:05:21;20.08;;;12.35;;
76447;SDS011;65284;51.040;13.722;2023-08-06T03:07:47;26.83;;;14.15;;
76447;SDS011;65284;51.040;13.722;2023-08-06T03:10:14;21.52;;;13.13;;
76447;SDS011;65284;51.040;13.722;2023-08-06T03:12:40;24.50;;;12.65;;
76447;SDS011;65284;51.040;13.722;2023-08-06T03:15:07;20.15;;;12.05;;
76447;SDS011;65284;51.040;13.722;2023-08-06T03:17:34;21.65;;;12.57;;
76447;SDS011;65284;51.040;13.722;2023-08-06T03:20:00;21.85;;;12.77;;
76447;SDS011;65284;51.040;13.722;2023-08-06T03:22:27;25.25;;;13.52;;
76447;SDS011;65284;51.040;13.722;2023-08-06T03:24:53;24.60;;;13.10;;
76447;SDS011;65284;51.040;13.722;2023-08-06T03:27:20;24.63;;;13.45;;
76447;SDS011;65284;51.040;13.722;2023-08-06T03:29:48;24.67;;;13.60;;
76447;SDS011;65284;51.040;13.722;2023-08-06T03:32:16;23.63;;;13.18;;
76447;SDS011;65284;51.040;13.722;2023-08-06T03:34:42;20.60;;;12.40;;
76447;SDS011;65284;51.040;13.722;2023-08-06T03:37:09;22.52;;;12.35;;
76447;SDS011;65284;51.040;13.722;2023-08-06T03:39:35;24.73;;;13.15;;
76447;SDS011;65284;51.040;13.722;2023-08-06T03:42:02;17.23;;;10.48;;
76447;SDS011;65284;51.040;13.722;2023-08-06T03:44:28;17.83;;;10.38;;
76447;SDS011;65284;51.040;13.722;2023-08-06T03:46:55;16.65;;;10.82;;
76447;SDS011;65284;51.040;13.722;2023-08-06T03:49:21;19.98;;;11.43;;
76447;SDS011;65284;51.040;13.722;2023-08-06T03:51:48;16.45;;;9.90;;
76447;SDS011;65284;51.040;13.722;2023-08-06T03:54:14;21.25;;;11.10;;
76447;SDS011;65284;51.040;13.722;2023-08-06T03:56:41;15.63;;;10.07;;
76447;SDS011;65284;51.040;13.722;2023-08-06T03:59:07;18.02;;;9.68;;
76447;SDS011;65284;51.040;13.722;2023-08-06T04:01:34;16.20;;;10.25;;
76447;SDS011;65284;51.040;13.722;2023-08-06T04:04:00;16.98;;;10.23;;
76447;SDS011;65284;51.040;13.722;2023-08-06T04:06:27;15.20;;;9.80;;
76447;SDS011;65284;51.040;13.722;2023-08-06T04:08:53;21.30;;;11.32;;
76447;SDS011;65284;51.040;13.722;2023-08-06T04:11:19;16.50;;;10.65;;
76447;SDS011;65284;51.040;13.722;2023-08-06T04:13:46;17.95;;;10.90;;
76447;SDS011;65284;51.040;13.722;2023-08-06T04:16:12;17.35;;;10.02;;
76447;SDS011;65284;51.040;13.722;2023-08-06T04:18:41;19.23;;;10.55;;
76447;SDS011;65284;51.040;13.722;2023-08-06T04:21:07;15.82;;;8.85;;
76447;SDS011;65284;51.040;13.722;2023-08-06T04:23:33;15.13;;;8.32;;
76447;SDS011;65284;51.040;13.722;2023-08-06T04:26:00;12.02;;;7.80;;
76447;SDS011;65284;51.040;13.722;2023-08-06T04:28:27;10.65;;;7.60;;
76447;SDS011;65284;51.040;13.722;2023-08-06T04:30:53;11.30;;;7.32;;
76447;SDS011;65284;51.040;13.722;2023-08-06T04:33:20;12.93;;;8.38;;
76447;SDS011;65284;51.040;13.722;2023-08-06T04:35:47;12.43;;;7.95;;
76447;SDS011;65284;51.040;13.722;2023-08-06T04:38:13;15.55;;;8.98;;
76447;SDS011;65284;51.040;13.722;2023-08-06T04:40:40;12.98;;;8.32;;
76447;SDS011;65284;51.040;13.722;2023-08-06T04:43:07;15.32;;;7.90;;
76447;SDS011;65284;51.040;13.722;2023-08-06T04:45:33;13.73;;;8.60;;
76447;SDS011;65284;51.040;13.722;2023-08-06T04:47:59;11.57;;;7.45;;
76447;SDS011;65284;51.040;13.722;2023-08-06T04:50:26;12.15;;;7.50;;
76447;SDS011;65284;51.040;13.722;2023-08-06T04:52:52;10.13;;;7.50;;
76447;SDS011;65284;51.040;13.722;2023-08-06T04:55:19;14.65;;;7.95;;
76447;SDS011;65284;51.040;13.722;2023-08-06T04:57:45;12.05;;;7.60;;
76447;SDS011;65284;51.040;13.722;2023-08-06T05:00:12;14.23;;;8.55;;
76447;SDS011;65284;51.040;13.722;2023-08-06T05:02:38;16.15;;;8.50;;
76447;SDS011;65284;51.040;13.722;2023-08-06T05:05:05;12.50;;;8.07;;
76447;SDS011;65284;51.040;13.722;2023-08-06T05:07:32;12.50;;;8.55;;
76447;SDS011;65284;51.040;13.722;2023-08-06T05:09:58;15.52;;;9.57;;
76447;SDS011;65284;51.040;13.722;2023-08-06T05:12:24;16.13;;;9.80;;
76447;SDS011;65284;51.040;13.722;2023-08-06T05:14:51;14.63;;;9.25;;
76447;SDS011;65284;51.040;13.722;2023-08-06T05:17:17;16.48;;;9.75;;
76447;SDS011;65284;51.040;13.722;2023-08-06T05:19:44;12.60;;;9.02;;
76447;SDS011;65284;51.040;13.722;2023-08-06T05:22:10;18.13;;;10.48;;
76447;SDS011;65284;51.040;13.722;2023-08-06T05:24:37;14.20;;;9.23;;
76447;SDS011;65284;51.040;13.722;2023-08-06T05:27:03;15.27;;;10.02;;
76447;SDS011;65284;51.040;13.722;2023-08-06T05:29:30;15.13;;;8.82;;
76447;SDS011;65284;51.040;13.722;2023-08-06T05:31:56;14.13;;;8.57;;
76447;SDS011;65284;51.040;13.722;2023-08-06T05:34:23;13.98;;;9.23;;
76447;SDS011;65284;51.040;13.722;2023-08-06T05:36:49;13.98;;;8.70;;
76447;SDS011;65284;51.040;13.722;2023-08-06T05:39:16;12.45;;;8.82;;
76447;SDS011;65284;51.040;13.722;2023-08-06T05:41:42;12.82;;;8.80;;
76447;SDS011;65284;51.040;13.722;2023-08-06T05:44:09;9.18;;;6.07;;
76447;SDS011;65284;51.040;13.722;2023-08-06T05:46:35;8.70;;;6.40;;
76447;SDS011;65284;51.040;13.722;2023-08-06T05:49:02;11.07;;;6.57;;
76447;SDS011;65284;51.040;13.722;2023-08-06T05:51:28;9.38;;;6.40;;
76447;SDS011;65284;51.040;13.722;2023-08-06T05:53:55;12.63;;;8.55;;
76447;SDS011;65284;51.040;13.722;2023-08-06T05:56:21;12.45;;;8.20;;
76447;SDS011;65284;51.040;13.722;2023-08-06T05:58:48;11.30;;;6.85;;
76447;SDS011;65284;51.040;13.722;2023-08-06T06:01:16;9.82;;;6.90;;
76447;SDS011;65284;51.040;13.722;2023-08-06T06:03:43;13.07;;;7.95;;
76447;SDS011;65284;51.040;13.722;2023-08-06T06:06:09;12.15;;;7.40;;
76447;SDS011;65284;51.040;13.722;2023-08-06T06:08:36;11.75;;;7.28;;
76447;SDS011;65284;51.040;13.722;2023-08-06T06:11:02;10.48;;;7.10;;
76447;SDS011;65284;51.040;13.722;2023-08-06T06:13:28;10.43;;;6.80;;
76447;SDS011;65284;51.040;13.722;2023-08-06T06:15:55;11.43;;;7.50;;
76447;SDS011;65284;51.040;13.722;2023-08-06T06:18:22;11.85;;;7.28;;
76447;SDS011;65284;51.040;13.722;2023-08-06T06:20:48;11.55;;;6.85;;
76447;SDS011;65284;51.040;13.722;2023-08-06T06:23:15;10.57;;;6.35;;
76447;SDS011;65284;51.040;13.722;2023-08-06T06:25:42;9.60;;;6.13;;
76447;SDS011;65284;51.040;13.722;2023-08-06T06:28:09;11.57;;;6.90;;
76447;SDS011;65284;51.040;13.722;2023-08-06T06:30:36;10.07;;;6.57;;
76447;SDS011;65284;51.040;13.722;2023-08-06T06:33:02;11.05;;;6.95;;
76447;SDS011;65284;51.040;13.722;2023-08-06T06:35:29;10.60;;;6.75;;
76447;SDS011;65284;51.040;13.722;2023-08-06T06:37:56;9.35;;;6.30;;
76447;SDS011;65284;51.040;13.722;2023-08-06T06:40:22;11.15;;;6.85;;
76447;SDS011;65284;51.040;13.722;2023-08-06T06:42:48;11.23;;;6.03;;
76447;SDS011;65284;51.040;13.722;2023-08-06T06:45:15;8.32;;;5.78;;
76447;SDS011;65284;51.040;13.722;2023-08-06T06:47:42;7.53;;;5.57;;
76447;SDS011;65284;51.040;13.722;2023-08-06T06:50:08;7.68;;;5.68;;
76447;SDS011;65284;51.040;13.722;2023-08-06T06:52:35;9.25;;;6.30;;
76447;SDS011;65284;51.040;13.722;2023-08-06T06:55:01;7.03;;;5.03;;
76447;SDS011;65284;51.040;13.722;2023-08-06T06:57:28;6.35;;;4.85;;
76447;SDS011;65284;51.040;13.722;2023-08-06T06:59:54;7.70;;;5.13;;
76447;SDS011;65284;51.040;13.722;2023-08-06T07:02:20;8.57;;;5.80;;
76447;SDS011;65284;51.040;13.722;2023-08-06T07:04:47;8.45;;;5.40;;
76447;SDS011;65284;51.040;13.722;2023-08-06T07:07:13;7.15;;;5.10;;
76447;SDS011;65284;51.040;13.722;2023-08-06T07:09:40;8.60;;;5.70;;
76447;SDS011;65284;51.040;13.722;2023-08-06T07:12:07;10.35;;;6.00;;
76447;SDS011;65284;51.040;13.722;2023-08-06T07:14:33;8.60;;;5.95;;
76447;SDS011;65284;51.040;13.722;2023-08-06T07:17:00;10.00;;;6.15;;
76447;SDS011;65284;51.040;13.722;2023-08-06T07:19:26;9.32;;;6.10;;
76447;SDS011;65284;51.040;13.722;2023-08-06T07:21:53;10.98;;;6.47;;
76447;SDS011;65284;51.040;13.722;2023-08-06T07:24:20;11.10;;;6.70;;
76447;SDS011;65284;51.040;13.722;2023-08-06T07:26:46;11.20;;;6.35;;
76447;SDS011;65284;51.040;13.722;2023-08-06T07:29:12;9.85;;;6.63;;
76447;SDS011;65284;51.040;13.722;2023-08-06T07:31:39;13.88;;;7.82;;
76447;SDS011;65284;51.040;13.722;2023-08-06T07:34:06;10.80;;;6.63;;
76447;SDS011;65284;51.040;13.722;2023-08-06T07:36:32;8.73;;;6.20;;
76447;SDS011;65284;51.040;13.722;2023-08-06T07:38:59;11.15;;;5.68;;
76447;SDS011;65284;51.040;13.722;2023-08-06T07:41:25;9.85;;;5.97;;
76447;SDS011;65284;51.040;13.722;2023-08-06T07:43:52;8.85;;;6.28;;
76447;SDS011;65284;51.040;13.722;2023-08-06T07:46:18;7.22;;;4.03;;
76447;SDS011;65284;51.040;13.722;2023-08-06T07:48:45;6.18;;;4.30;;
76447;SDS011;65284;51.040;13.722;2023-08-06T07:51:11;7.28;;;4.13;;
76447;SDS011;65284;51.040;13.722;2023-08-06T07:53:37;8.02;;;4.57;;
76447;SDS011;65284;51.040;13.722;2023-08-06T07:56:04;5.95;;;4.18;;
76447;SDS011;65284;51.040;13.722;2023-08-06T07:58:31;9.57;;;4.90;;
76447;SDS011;65284;51.040;13.722;2023-08-06T08:00:58;7.32;;;4.78;;
76447;SDS011;65284;51.040;13.722;2023-08-06T08:03:24;9.57;;;5.20;;
76447;SDS011;65284;51.040;13.722;2023-08-06T08:05:53;8.35;;;4.68;;
76447;SDS011;65284;51.040;13.722;2023-08-06T08:08:22;8.63;;;5.00;;
76447;SDS011;65284;51.040;13.722;2023-08-06T08:10:49;7.97;;;4.50;;
76447;SDS011;65284;51.040;13.722;2023-08-06T08:13:15;8.73;;;4.90;;
76447;SDS011;65284;51.040;13.722;2023-08-06T08:15:42;9.25;;;4.40;;
76447;SDS011;65284;51.040;13.722;2023-08-06T08:18:08;7.25;;;3.58;;
76447;SDS011;65284;51.040;13.722;2023-08-06T08:20:35;5.10;;;3.30;;
76447;SDS011;65284;51.040;13.722;2023-08-06T08:23:02;4.97;;;3.20;;
76447;SDS011;65284;51.040;13.722;2023-08-06T08:25:28;6.93;;;3.50;;
76447;SDS011;65284;51.040;13.722;2023-08-06T08:27:57;5.78;;;3.40;;
76447;SDS011;65284;51.040;13.722;2023-08-06T08:30:23;7.80;;;3.70;;
76447;SDS011;65284;51.040;13.722;2023-08-06T08:32:51;3.97;;;2.53;;
76447;SDS011;65284;51.040;13.722;2023-08-06T08:35:18;5.68;;;2.85;;
76447;SDS011;65284;51.040;13.722;2023-08-06T08:37:45;4.72;;;2.70;;
76447;SDS011;65284;51.040;13.722;2023-08-06T08:40:11;4.28;;;2.60;;
76447;SDS011;65284;51.040;13.722;2023-08-06T08:42:38;4.75;;;2.70;;
76447;SDS011;65284;51.040;13.722;2023-08-06T08:45:04;5.47;;;2.67;;
76447;SDS011;65284;51.040;13.722;2023-08-06T08:47:37;4.80;;;2.78;;
76447;SDS011;65284;51.040;13.722;2023-08-06T08:50:05;5.18;;;2.60;;
76447;SDS011;65284;51.040;13.722;2023-08-06T08:52:33;4.72;;;2.70;;
76447;SDS011;65284;51.040;13.722;2023-08-06T08:55:01;5.55;;;2.90;;
76447;SDS011;65284;51.040;13.722;2023-08-06T08:57:28;4.63;;;2.63;;
76447;SDS011;65284;51.040;13.722;2023-08-06T08:59:54;6.28;;;3.17;;
76447;SDS011;65284;51.040;13.722;2023-08-06T09:02:21;5.60;;;2.75;;
76447;SDS011;65284;51.040;13.722;2023-08-06T09:04:48;5.10;;;2.88;;
76447;SDS011;65284;51.040;13.722;2023-08-06T09:07:16;5.38;;;2.63;;
76447;SDS011;65284;51.040;13.722;2023-08-06T09:09:46;5.85;;;3.10;;
76447;SDS011;65284;51.040;13.722;2023-08-06T09:12:16;4.85;;;3.30;;
76447;SDS011;65284;51.040;13.722;2023-08-06T09:14:43;4.18;;;2.80;;
76447;SDS011;65284;51.040;13.722;2023-08-06T09:17:09;6.45;;;3.10;;
76447;SDS011;65284;51.040;13.722;2023-08-06T09:19:42;4.53;;;3.05;;
76447;SDS011;65284;51.040;13.722;2023-08-06T09:22:14;5.13;;;3.15;;
76447;SDS011;65284;51.040;13.722;2023-08-06T09:24:41;6.07;;;3.17;;
76447;SDS011;65284;51.040;13.722;2023-08-06T09:27:14;5.93;;;3.63;;
76447;SDS011;65284;51.040;13.722;2023-08-06T09:29:41;5.68;;;3.45;;
76447;SDS011;65284;51.040;13.722;2023-08-06T09:32:12;6.25;;;3.85;;
76447;SDS011;65284;51.040;13.722;2023-08-06T09:34:42;7.50;;;4.20;;
76447;SDS011;65284;51.040;13.722;2023-08-06T09:37:11;8.85;;;4.38;;
76447;SDS011;65284;51.040;13.722;2023-08-06T09:39:38;6.63;;;4.03;;
76447;SDS011;65284;51.040;13.722;2023-08-06T09:42:07;6.13;;;4.00;;
76447;SDS011;65284;51.040;13.722;2023-08-06T09:44:33;6.30;;;4.18;;
76447;SDS011;65284;51.040;13.722;2023-08-06T09:47:02;6.30;;;3.88;;
76447;SDS011;65284;51.040;13.722;2023-08-06T09:51:59;5.45;;;3.85;;
76447;SDS011;65284;51.040;13.722;2023-08-06T09:54:26;7.00;;;4.28;;
76447;SDS011;65284;51.040;13.722;2023-08-06T09:56:54;6.90;;;4.20;;
76447;SDS011;65284;51.040;13.722;2023-08-06T09:59:22;10.05;;;4.10;;
76447;SDS011;65284;51.040;13.722;2023-08-06T10:01:51;7.43;;;4.32;;
76447;SDS011;65284;51.040;13.722;2023-08-06T10:04:20;5.30;;;3.42;;
76447;SDS011;65284;51.040;13.722;2023-08-06T10:06:51;7.18;;;3.97;;
76447;SDS011;65284;51.040;13.722;2023-08-06T10:09:19;5.75;;;3.70;;
76447;SDS011;65284;51.040;13.722;2023-08-06T10:11:48;4.20;;;3.17;;
76447;SDS011;65284;51.040;13.722;2023-08-06T10:14:28;5.47;;;3.95;;
76447;SDS011;65284;51.040;13.722;2023-08-06T10:16:59;5.25;;;3.53;;
76447;SDS011;65284;51.040;13.722;2023-08-06T10:19:26;6.43;;;3.60;;
76447;SDS011;65284;51.040;13.722;2023-08-06T10:22:13;6.38;;;3.83;;
76447;SDS011;65284;51.040;13.722;2023-08-06T10:24:50;5.10;;;3.70;;
76447;SDS011;65284;51.040;13.722;2023-08-06T10:32:50;5.55;;;3.38;;
76447;SDS011;65284;51.040;13.722;2023-08-06T10:35:31;5.38;;;3.20;;
76447;SDS011;65284;51.040;13.722;2023-08-06T10:38:05;6.07;;;3.70;;
76447;SDS011;65284;51.040;13.722;2023-08-06T10:40:33;4.57;;;2.97;;
76447;SDS011;65284;51.040;13.722;2023-08-06T10:43:00;5.75;;;3.13;;
76447;SDS011;65284;51.040;13.722;2023-08-06T10:45:27;4.32;;;2.80;;
76447;SDS011;65284;51.040;13.722;2023-08-06T10:47:57;4.13;;;2.92;;
76447;SDS011;65284;51.040;13.722;2023-08-06T10:50:24;5.50;;;2.90;;
76447;SDS011;65284;51.040;13.722;2023-08-06T10:52:51;5.90;;;2.70;;
76447;SDS011;65284;51.040;13.722;2023-08-06T10:55:22;4.68;;;2.90;;
76447;SDS011;65284;51.040;13.722;2023-08-06T10:57:53;5.80;;;3.05;;
76447;SDS011;65284;51.040;13.722;2023-08-06T11:00:21;4.90;;;3.03;;
76447;SDS011;65284;51.040;13.722;2023-08-06T11:02:49;5.15;;;2.83;;
76447;SDS011;65284;51.040;13.722;2023-08-06T11:05:17;6.03;;;3.10;;
76447;SDS011;65284;51.040;13.722;2023-08-06T11:07:44;7.15;;;3.05;;
76447;SDS011;65284;51.040;13.722;2023-08-06T11:10:11;5.72;;;3.33;;
76447;SDS011;65284;51.040;13.722;2023-08-06T11:12:39;5.97;;;2.60;;
76447;SDS011;65284;51.040;13.722;2023-08-06T11:15:06;4.45;;;2.80;;
76447;SDS011;65284;51.040;13.722;2023-08-06T11:17:33;4.90;;;3.00;;
76447;SDS011;65284;51.040;13.722;2023-08-06T11:20:01;5.18;;;2.90;;
76447;SDS011;65284;51.040;13.722;2023-08-06T11:22:29;3.72;;;2.80;;
76447;SDS011;65284;51.040;13.722;2023-08-06T11:24:56;4.03;;;2.70;;
76447;SDS011;65284;51.040;13.722;2023-08-06T11:27:25;6.35;;;2.63;;
76447;SDS011;65284;51.040;13.722;2023-08-06T11:29:54;4.43;;;2.63;;
76447;SDS011;65284;51.040;13.722;2023-08-06T11:32:20;4.55;;;2.30;;
76447;SDS011;65284;51.040;13.722;2023-08-06T11:34:47;4.20;;;2.10;;
76447;SDS011;65284;51.040;13.722;2023-08-06T11:37:13;3.90;;;2.53;;
76447;SDS011;65284;51.040;13.722;2023-08-06T11:39:44;4.97;;;2.40;;
76447;SDS011;65284;51.040;13.722;2023-08-06T11:42:14;3.47;;;2.38;;
76447;SDS011;65284;51.040;13.722;2023-08-06T11:44:43;3.67;;;2.65;;
76447;SDS011;65284;51.040;13.722;2023-08-06T11:47:14;4.78;;;2.85;;
76447;SDS011;65284;51.040;13.722;2023-08-06T11:49:47;3.85;;;2.90;;
76447;SDS011;65284;51.040;13.722;2023-08-06T11:52:21;5.43;;;2.90;;
76447;SDS011;65284;51.040;13.722;2023-08-06T11:55:02;4.15;;;2.83;;
76447;SDS011;65284;51.040;13.722;2023-08-06T11:57:34;4.28;;;2.85;;
76447;SDS011;65284;51.040;13.722;2023-08-06T12:00:04;5.90;;;3.17;;
76447;SDS011;65284;51.040;13.722;2023-08-06T12:02:31;6.07;;;2.97;;
76447;SDS011;65284;51.040;13.722;2023-08-06T12:05:28;5.43;;;3.10;;
76447;SDS011;65284;51.040;13.722;2023-08-06T12:07:56;5.05;;;2.88;;
76447;SDS011;65284;51.040;13.722;2023-08-06T12:12:51;5.82;;;3.00;;
76447;SDS011;65284;51.040;13.722;2023-08-06T12:15:18;4.97;;;3.00;;
76447;SDS011;65284;51.040;13.722;2023-08-06T12:17:44;4.50;;;3.20;;
76447;SDS011;65284;51.040;13.722;2023-08-06T12:20:11;5.05;;;3.05;;
76447;SDS011;65284;51.040;13.722;2023-08-06T12:22:38;5.85;;;3.20;;
76447;SDS011;65284;51.040;13.722;2023-08-06T12:25:06;4.43;;;2.80;;
76447;SDS011;65284;51.040;13.722;2023-08-06T12:27:35;5.32;;;3.20;;
76447;SDS011;65284;51.040;13.722;2023-08-06T12:30:02;4.55;;;3.20;;
76447;SDS011;65284;51.040;13.722;2023-08-06T12:32:31;5.60;;;3.00;;
76447;SDS011;65284;51.040;13.722;2023-08-06T12:34:58;4.13;;;3.10;;
76447;SDS011;65284;51.040;13.722;2023-08-06T12:37:24;6.38;;;3.45;;
76447;SDS011;65284;51.040;13.722;2023-08-06T12:39:53;5.75;;;3.35;;
76447;SDS011;65284;51.040;13.722;2023-08-06T12:42:20;5.85;;;3.33;;
76447;SDS011;65284;51.040;13.722;2023-08-06T12:44:51;4.72;;;3.17;;
76447;SDS011;65284;51.040;13.722;2023-08-06T12:47:18;5.72;;;3.40;;
76447;SDS011;65284;51.040;13.722;2023-08-06T12:49:45;4.03;;;3.22;;
76447;SDS011;65284;51.040;13.722;2023-08-06T12:52:11;4.72;;;3.30;;
76447;SDS011;65284;51.040;13.722;2023-08-06T12:54:41;5.32;;;3.63;;
76447;SDS011;65284;51.040;13.722;2023-08-06T12:57:08;5.35;;;3.40;;
76447;SDS011;65284;51.040;13.722;2023-08-06T12:59:35;6.95;;;3.28;;
76447;SDS011;65284;51.040;13.722;2023-08-06T13:02:03;5.43;;;3.58;;
76447;SDS011;65284;51.040;13.722;2023-08-06T13:04:30;6.68;;;3.80;;
76447;SDS011;65284;51.040;13.722;2023-08-06T13:06:57;5.80;;;3.38;;
76447;SDS011;65284;51.040;13.722;2023-08-06T13:09:23;4.55;;;3.00;;
76447;SDS011;65284;51.040;13.722;2023-08-06T13:11:52;4.57;;;2.70;;
76447;SDS011;65284;51.040;13.722;2023-08-06T13:14:19;3.50;;;2.75;;
76447;SDS011;65284;51.040;13.722;2023-08-06T13:16:46;4.18;;;2.40;;
76447;SDS011;65284;51.040;13.722;2023-08-06T13:19:12;3.80;;;2.50;;
76447;SDS011;65284;51.040;13.722;2023-08-06T13:24:06;3.28;;;2.10;;
76447;SDS011;65284;51.040;13.722;2023-08-06T13:26:32;3.25;;;2.20;;
76447;SDS011;65284;51.040;13.722;2023-08-06T13:28:59;3.08;;;1.90;;
76447;SDS011;65284;51.040;13.722;2023-08-06T13:31:26;3.22;;;2.00;;
76447;SDS011;65284;51.040;13.722;2023-08-06T13:33:56;3.10;;;1.70;;
76447;SDS011;65284;51.040;13.722;2023-08-06T13:36:25;2.42;;;1.70;;
76447;SDS011;65284;51.040;13.722;2023-08-06T13:38:55;3.63;;;1.80;;
76447;SDS011;65284;51.040;13.722;2023-08-06T13:41:22;4.30;;;1.83;;
76447;SDS011;65284;51.040;13.722;2023-08-06T13:43:49;3.15;;;2.00;;
76447;SDS011;65284;51.040;13.722;2023-08-06T13:46:17;2.90;;;1.70;;
76447;SDS011;65284;51.040;13.722;2023-08-06T13:48:47;4.75;;;1.95;;
76447;SDS011;65284;51.040;13.722;2023-08-06T13:51:17;3.05;;;1.92;;
76447;SDS011;65284;51.040;13.722;2023-08-06T13:53:44;3.42;;;1.90;;
76447;SDS011;65284;51.040;13.722;2023-08-06T13:56:11;2.72;;;1.85;;
76447;SDS011;65284;51.040;13.722;2023-08-06T13:58:38;3.20;;;2.08;;
76447;SDS011;65284;51.040;13.722;2023-08-06T14:01:05;3.30;;;2.00;;
76447;SDS011;65284;51.040;13.722;2023-08-06T14:03:32;3.47;;;1.90;;
76447;SDS011;65284;51.040;13.722;2023-08-06T14:05:59;6.50;;;2.17;;
76447;SDS011;65284;51.040;13.722;2023-08-06T14:08:26;4.45;;;2.00;;
76447;SDS011;65284;51.040;13.722;2023-08-06T14:10:52;3.05;;;2.00;;
76447;SDS011;65284;51.040;13.722;2023-08-06T14:13:22;4.38;;;2.38;;
76447;SDS011;65284;51.040;13.722;2023-08-06T14:18:15;3.20;;;2.10;;
76447;SDS011;65284;51.040;13.722;2023-08-06T14:20:43;3.63;;;1.90;;
76447;SDS011;65284;51.040;13.722;2023-08-06T14:23:10;3.42;;;2.20;;
76447;SDS011;65284;51.040;13.722;2023-08-06T14:25:37;3.58;;;2.22;;
76447;SDS011;65284;51.040;13.722;2023-08-06T14:28:07;3.03;;;2.28;;
76447;SDS011;65284;51.040;13.722;2023-08-06T14:33:00;3.85;;;2.50;;
76447;SDS011;65284;51.040;13.722;2023-08-06T14:35:46;5.60;;;2.95;;
76447;SDS011;65284;51.040;13.722;2023-08-06T14:38:16;4.70;;;2.70;;
76447;SDS011;65284;51.040;13.722;2023-08-06T14:40:43;3.70;;;2.38;;
76447;SDS011;65284;51.040;13.722;2023-08-06T14:43:10;4.40;;;2.40;;
76447;SDS011;65284;51.040;13.722;2023-08-06T14:45:40;4.40;;;2.90;;
76447;SDS011;65284;51.040;13.722;2023-08-06T14:48:08;3.72;;;2.80;;
76447;SDS011;65284;51.040;13.722;2023-08-06T14:50:35;4.63;;;3.20;;
76447;SDS011;65284;51.040;13.722;2023-08-06T14:53:02;3.60;;;2.63;;
76447;SDS011;65284;51.040;13.722;2023-08-06T14:57:57;6.05;;;4.68;;